sensor_id;sensor_type;location;lat;lon;timestamp;temperature;humidity
19805;DHT22;10062;51.052;13.756;2022-07-29T00:01:43;19.30;99.90
19805;DHT22;10062;51.052;13.756;2022-07-29T00:04:15;19.30;99.90
19805;DHT22;10062;51.052;13.756;2022-07-29T00:06:47;19.30;99.90
19805;DHT22;10062;51.052;13.756;2022-07-29T00:09:18;19.30;99.90
19805;DHT22;10062;51.052;13.756;2022-07-29T00:11:50;19.40;99.90
19805;DHT22;10062;51.052;13.756;2022-07-29T00:14:22;19.40;99.90
19805;DHT22;10062;51.052;13.756;2022-07-29T00:16:55;19.40;99.90
19805;DHT22;10062;51.052;13.756;2022-07-29T00:19:26;19.40;99.90
19805;DHT22;10062;51.052;13.756;2022-07-29T00:21:58;19.20;99.90
19805;DHT22;10062;51.052;13.756;2022-07-29T00:24:30;19.20;99.90
19805;DHT22;10062;51.052;13.756;2022-07-29T00:27:01;19.20;99.90
19805;DHT22;10062;51.052;13.756;2022-07-29T00:29:33;19.10;99.90
19805;DHT22;10062;51.052;13.756;2022-07-29T00:32:07;19.00;99.90
19805;DHT22;10062;51.052;13.756;2022-07-29T00:34:38;19.10;99.90
19805;DHT22;10062;51.052;13.756;2022-07-29T00:37:28;19.00;99.90
19805;DHT22;10062;51.052;13.756;2022-07-29T00:40:00;18.90;99.90
19805;DHT22;10062;51.052;13.756;2022-07-29T00:42:41;18.80;99.90
19805;DHT22;10062;51.052;13.756;2022-07-29T00:45:13;18.90;99.90
19805;DHT22;10062;51.052;13.756;2022-07-29T00:47:46;18.80;99.90
19805;DHT22;10062;51.052;13.756;2022-07-29T00:50:19;18.70;99.90
19805;DHT22;10062;51.052;13.756;2022-07-29T00:52:51;18.70;99.90
19805;DHT22;10062;51.052;13.756;2022-07-29T00:55:23;18.70;99.90
19805;DHT22;10062;51.052;13.756;2022-07-29T00:57:55;18.60;99.90
19805;DHT22;10062;51.052;13.756;2022-07-29T01:00:29;18.50;99.90
19805;DHT22;10062;51.052;13.756;2022-07-29T01:03:02;18.50;99.90
19805;DHT22;10062;51.052;13.756;2022-07-29T01:05:34;18.40;99.90
19805;DHT22;10062;51.052;13.756;2022-07-29T01:08:07;18.40;99.90
19805;DHT22;10062;51.052;13.756;2022-07-29T01:10:39;18.30;99.90
19805;DHT22;10062;51.052;13.756;2022-07-29T01:13:12;18.30;99.90
19805;DHT22;10062;51.052;13.756;2022-07-29T01:15:47;18.30;99.90
19805;DHT22;10062;51.052;13.756;2022-07-29T01:18:26;18.30;99.90
19805;DHT22;10062;51.052;13.756;2022-07-29T01:21:21;18.20;99.90
19805;DHT22;10062;51.052;13.756;2022-07-29T01:24:11;18.20;1.00
19805;DHT22;10062;51.052;13.756;2022-07-29T01:26:49;18.20;1.00
19805;DHT22;10062;51.052;13.756;2022-07-29T01:29:26;18.10;1.00
19805;DHT22;10062;51.052;13.756;2022-07-29T01:32:03;18.10;1.00
19805;DHT22;10062;51.052;13.756;2022-07-29T01:34:41;18.10;1.00
19805;DHT22;10062;51.052;13.756;2022-07-29T01:37:19;18.00;1.00
19805;DHT22;10062;51.052;13.756;2022-07-29T01:39:53;18.00;1.00
19805;DHT22;10062;51.052;13.756;2022-07-29T01:42:29;18.00;1.00
19805;DHT22;10062;51.052;13.756;2022-07-29T01:45:08;17.90;1.00
19805;DHT22;10062;51.052;13.756;2022-07-29T01:47:49;17.90;1.00
19805;DHT22;10062;51.052;13.756;2022-07-29T01:50:30;17.80;1.00
19805;DHT22;10062;51.052;13.756;2022-07-29T01:53:06;18.00;1.00
19805;DHT22;10062;51.052;13.756;2022-07-29T01:55:42;17.90;1.00
19805;DHT22;10062;51.052;13.756;2022-07-29T01:58:16;17.70;1.00
19805;DHT22;10062;51.052;13.756;2022-07-29T02:00:50;17.60;1.00
19805;DHT22;10062;51.052;13.756;2022-07-29T02:03:23;17.60;1.00
19805;DHT22;10062;51.052;13.756;2022-07-29T02:05:56;17.50;1.00
19805;DHT22;10062;51.052;13.756;2022-07-29T02:08:30;17.50;1.00
19805;DHT22;10062;51.052;13.756;2022-07-29T02:11:05;17.60;1.00
19805;DHT22;10062;51.052;13.756;2022-07-29T02:13:38;17.50;1.00
19805;DHT22;10062;51.052;13.756;2022-07-29T02:16:12;17.40;1.00
19805;DHT22;10062;51.052;13.756;2022-07-29T02:18:45;17.40;1.00
19805;DHT22;10062;51.052;13.756;2022-07-29T02:21:23;17.40;1.00
19805;DHT22;10062;51.052;13.756;2022-07-29T02:23:56;17.40;1.00
19805;DHT22;10062;51.052;13.756;2022-07-29T02:26:32;17.40;1.00
19805;DHT22;10062;51.052;13.756;2022-07-29T02:29:05;17.40;1.00
19805;DHT22;10062;51.052;13.756;2022-07-29T02:31:39;17.30;1.00
19805;DHT22;10062;51.052;13.756;2022-07-29T02:34:15;17.30;1.00
19805;DHT22;10062;51.052;13.756;2022-07-29T02:36:48;17.30;1.00
19805;DHT22;10062;51.052;13.756;2022-07-29T02:39:21;17.30;1.00
19805;DHT22;10062;51.052;13.756;2022-07-29T02:41:57;17.40;1.00
19805;DHT22;10062;51.052;13.756;2022-07-29T02:44:30;17.40;1.00
19805;DHT22;10062;51.052;13.756;2022-07-29T02:47:18;17.40;1.00
19805;DHT22;10062;51.052;13.756;2022-07-29T02:49:54;17.40;1.00
19805;DHT22;10062;51.052;13.756;2022-07-29T02:52:31;17.40;1.00
19805;DHT22;10062;51.052;13.756;2022-07-29T02:55:12;17.30;1.00
19805;DHT22;10062;51.052;13.756;2022-07-29T02:57:49;17.30;1.00
19805;DHT22;10062;51.052;13.756;2022-07-29T03:00:23;17.30;1.00
19805;DHT22;10062;51.052;13.756;2022-07-29T03:03:00;17.40;1.00
19805;DHT22;10062;51.052;13.756;2022-07-29T03:05:35;17.40;1.00
19805;DHT22;10062;51.052;13.756;2022-07-29T03:08:08;17.30;1.00
19805;DHT22;10062;51.052;13.756;2022-07-29T03:10:44;17.30;1.00
19805;DHT22;10062;51.052;13.756;2022-07-29T03:13:18;17.30;1.00
19805;DHT22;10062;51.052;13.756;2022-07-29T03:15:51;17.40;1.00
19805;DHT22;10062;51.052;13.756;2022-07-29T03:18:25;17.40;1.00
19805;DHT22;10062;51.052;13.756;2022-07-29T03:20:57;17.20;1.00
19805;DHT22;10062;51.052;13.756;2022-07-29T03:23:29;17.20;1.00
19805;DHT22;10062;51.052;13.756;2022-07-29T03:26:01;17.00;1.00
19805;DHT22;10062;51.052;13.756;2022-07-29T03:28:33;16.90;1.00
19805;DHT22;10062;51.052;13.756;2022-07-29T03:31:04;17.00;1.00
19805;DHT22;10062;51.052;13.756;2022-07-29T03:33:37;17.10;1.00
19805;DHT22;10062;51.052;13.756;2022-07-29T03:36:09;17.00;1.00
19805;DHT22;10062;51.052;13.756;2022-07-29T03:38:42;16.90;1.00
19805;DHT22;10062;51.052;13.756;2022-07-29T03:41:16;16.80;1.00
19805;DHT22;10062;51.052;13.756;2022-07-29T03:43:49;16.80;1.00
19805;DHT22;10062;51.052;13.756;2022-07-29T03:46:23;16.80;1.00
19805;DHT22;10062;51.052;13.756;2022-07-29T03:49:01;16.80;1.00
19805;DHT22;10062;51.052;13.756;2022-07-29T03:51:34;16.70;1.00
19805;DHT22;10062;51.052;13.756;2022-07-29T03:54:07;16.70;1.00
19805;DHT22;10062;51.052;13.756;2022-07-29T03:56:40;16.80;1.00
19805;DHT22;10062;51.052;13.756;2022-07-29T03:59:13;16.80;1.00
19805;DHT22;10062;51.052;13.756;2022-07-29T04:01:47;16.80;1.00
19805;DHT22;10062;51.052;13.756;2022-07-29T04:04:21;16.80;1.00
19805;DHT22;10062;51.052;13.756;2022-07-29T04:06:53;16.80;1.00
19805;DHT22;10062;51.052;13.756;2022-07-29T04:09:25;15.90;1.00
19805;DHT22;10062;51.052;13.756;2022-07-29T04:11:57;16.90;1.00
19805;DHT22;10062;51.052;13.756;2022-07-29T04:14:29;16.90;1.00
19805;DHT22;10062;51.052;13.756;2022-07-29T04:17:02;16.90;1.00
19805;DHT22;10062;51.052;13.756;2022-07-29T04:19:35;17.00;1.00
19805;DHT22;10062;51.052;13.756;2022-07-29T04:22:07;17.00;1.00
19805;DHT22;10062;51.052;13.756;2022-07-29T04:24:38;17.00;1.00
19805;DHT22;10062;51.052;13.756;2022-07-29T04:27:10;17.00;1.00
19805;DHT22;10062;51.052;13.756;2022-07-29T04:29:41;17.00;1.00
19805;DHT22;10062;51.052;13.756;2022-07-29T04:32:13;17.00;1.00
19805;DHT22;10062;51.052;13.756;2022-07-29T04:34:46;17.00;1.00
19805;DHT22;10062;51.052;13.756;2022-07-29T04:37:18;17.10;1.00
19805;DHT22;10062;51.052;13.756;2022-07-29T04:39:50;17.20;1.00
19805;DHT22;10062;51.052;13.756;2022-07-29T04:42:22;17.20;1.00
19805;DHT22;10062;51.052;13.756;2022-07-29T04:44:53;17.10;1.00
19805;DHT22;10062;51.052;13.756;2022-07-29T04:47:25;17.10;1.00
19805;DHT22;10062;51.052;13.756;2022-07-29T04:49:58;17.20;1.00
19805;DHT22;10062;51.052;13.756;2022-07-29T04:52:30;17.20;1.00
19805;DHT22;10062;51.052;13.756;2022-07-29T04:55:03;17.10;1.00
19805;DHT22;10062;51.052;13.756;2022-07-29T04:57:34;17.10;1.00
19805;DHT22;10062;51.052;13.756;2022-07-29T05:00:07;17.10;1.00
19805;DHT22;10062;51.052;13.756;2022-07-29T05:02:39;17.10;1.00
19805;DHT22;10062;51.052;13.756;2022-07-29T05:05:12;17.30;1.00
19805;DHT22;10062;51.052;13.756;2022-07-29T05:07:44;17.30;1.00
19805;DHT22;10062;51.052;13.756;2022-07-29T05:10:16;17.30;1.00
19805;DHT22;10062;51.052;13.756;2022-07-29T05:12:47;17.30;1.00
19805;DHT22;10062;51.052;13.756;2022-07-29T05:15:19;17.20;1.00
19805;DHT22;10062;51.052;13.756;2022-07-29T05:17:51;17.30;1.00
19805;DHT22;10062;51.052;13.756;2022-07-29T05:20:24;17.30;1.00
19805;DHT22;10062;51.052;13.756;2022-07-29T05:22:59;17.40;1.00
19805;DHT22;10062;51.052;13.756;2022-07-29T05:25:31;17.40;1.00
19805;DHT22;10062;51.052;13.756;2022-07-29T05:28:03;17.50;1.00
19805;DHT22;10062;51.052;13.756;2022-07-29T05:30:35;17.50;1.00
19805;DHT22;10062;51.052;13.756;2022-07-29T05:33:07;17.50;1.00
19805;DHT22;10062;51.052;13.756;2022-07-29T05:35:40;17.60;1.00
19805;DHT22;10062;51.052;13.756;2022-07-29T05:38:11;17.80;1.00
19805;DHT22;10062;51.052;13.756;2022-07-29T05:40:43;18.00;1.00
19805;DHT22;10062;51.052;13.756;2022-07-29T05:43:15;18.20;1.00
19805;DHT22;10062;51.052;13.756;2022-07-29T05:45:46;18.30;1.00
19805;DHT22;10062;51.052;13.756;2022-07-29T05:48:18;18.30;1.00
19805;DHT22;10062;51.052;13.756;2022-07-29T05:50:51;18.40;1.00
19805;DHT22;10062;51.052;13.756;2022-07-29T05:53:23;18.40;1.00
19805;DHT22;10062;51.052;13.756;2022-07-29T05:55:55;18.50;1.00
19805;DHT22;10062;51.052;13.756;2022-07-29T05:58:28;18.50;1.00
19805;DHT22;10062;51.052;13.756;2022-07-29T06:00:59;18.60;1.00
19805;DHT22;10062;51.052;13.756;2022-07-29T06:03:31;18.70;1.00
19805;DHT22;10062;51.052;13.756;2022-07-29T06:06:04;18.70;1.00
19805;DHT22;10062;51.052;13.756;2022-07-29T06:08:37;18.70;1.00
19805;DHT22;10062;51.052;13.756;2022-07-29T06:11:10;18.70;1.00
19805;DHT22;10062;51.052;13.756;2022-07-29T06:13:42;18.80;1.00
19805;DHT22;10062;51.052;13.756;2022-07-29T06:16:14;18.90;1.00
19805;DHT22;10062;51.052;13.756;2022-07-29T06:18:45;19.00;1.00
19805;DHT22;10062;51.052;13.756;2022-07-29T06:21:18;19.10;1.00
19805;DHT22;10062;51.052;13.756;2022-07-29T06:23:50;19.20;1.00
19805;DHT22;10062;51.052;13.756;2022-07-29T06:26:21;19.30;1.00
19805;DHT22;10062;51.052;13.756;2022-07-29T06:28:53;19.30;1.00
19805;DHT22;10062;51.052;13.756;2022-07-29T06:31:25;19.30;1.00
19805;DHT22;10062;51.052;13.756;2022-07-29T06:33:57;19.40;1.00
19805;DHT22;10062;51.052;13.756;2022-07-29T06:36:30;19.40;1.00
19805;DHT22;10062;51.052;13.756;2022-07-29T06:39:04;19.50;1.00
19805;DHT22;10062;51.052;13.756;2022-07-29T06:41:35;19.60;1.00
19805;DHT22;10062;51.052;13.756;2022-07-29T06:44:13;19.70;1.00
19805;DHT22;10062;51.052;13.756;2022-07-29T06:46:45;19.80;1.00
19805;DHT22;10062;51.052;13.756;2022-07-29T06:49:19;19.80;1.00
19805;DHT22;10062;51.052;13.756;2022-07-29T06:51:52;19.90;1.00
19805;DHT22;10062;51.052;13.756;2022-07-29T06:54:24;20.00;1.00
19805;DHT22;10062;51.052;13.756;2022-07-29T06:56:56;20.10;1.00
19805;DHT22;10062;51.052;13.756;2022-07-29T06:59:27;20.30;1.00
19805;DHT22;10062;51.052;13.756;2022-07-29T07:01:59;20.40;1.00
19805;DHT22;10062;51.052;13.756;2022-07-29T07:04:31;20.50;1.00
19805;DHT22;10062;51.052;13.756;2022-07-29T07:07:05;20.70;1.00
19805;DHT22;10062;51.052;13.756;2022-07-29T07:09:36;20.80;1.00
19805;DHT22;10062;51.052;13.756;2022-07-29T07:12:08;20.90;1.00
19805;DHT22;10062;51.052;13.756;2022-07-29T07:14:40;21.20;1.00
19805;DHT22;10062;51.052;13.756;2022-07-29T07:17:12;21.40;1.00
19805;DHT22;10062;51.052;13.756;2022-07-29T07:19:44;21.60;1.00
19805;DHT22;10062;51.052;13.756;2022-07-29T07:22:17;21.80;1.00
19805;DHT22;10062;51.052;13.756;2022-07-29T07:24:49;21.90;1.00
19805;DHT22;10062;51.052;13.756;2022-07-29T07:27:21;21.90;1.00
19805;DHT22;10062;51.052;13.756;2022-07-29T07:29:53;22.00;1.00
19805;DHT22;10062;51.052;13.756;2022-07-29T07:32:25;22.10;1.00
19805;DHT22;10062;51.052;13.756;2022-07-29T07:34:56;22.10;1.00
19805;DHT22;10062;51.052;13.756;2022-07-29T07:37:30;22.20;1.00
19805;DHT22;10062;51.052;13.756;2022-07-29T07:40:03;22.30;1.00
19805;DHT22;10062;51.052;13.756;2022-07-29T07:42:35;22.20;1.00
19805;DHT22;10062;51.052;13.756;2022-07-29T07:45:08;22.30;1.00
19805;DHT22;10062;51.052;13.756;2022-07-29T07:47:40;22.50;1.00
19805;DHT22;10062;51.052;13.756;2022-07-29T07:50:12;22.70;1.00
19805;DHT22;10062;51.052;13.756;2022-07-29T07:52:50;23.10;1.00
19805;DHT22;10062;51.052;13.756;2022-07-29T07:55:22;23.40;1.00
19805;DHT22;10062;51.052;13.756;2022-07-29T07:57:54;23.70;1.00
19805;DHT22;10062;51.052;13.756;2022-07-29T08:00:26;23.80;1.00
19805;DHT22;10062;51.052;13.756;2022-07-29T08:02:57;23.90;1.00
19805;DHT22;10062;51.052;13.756;2022-07-29T08:05:29;24.00;1.00
19805;DHT22;10062;51.052;13.756;2022-07-29T08:08:03;24.20;1.00
19805;DHT22;10062;51.052;13.756;2022-07-29T08:10:35;24.30;1.00
19805;DHT22;10062;51.052;13.756;2022-07-29T08:13:26;24.50;1.00
19805;DHT22;10062;51.052;13.756;2022-07-29T08:16:00;24.70;1.00
19805;DHT22;10062;51.052;13.756;2022-07-29T08:18:32;24.90;1.00
19805;DHT22;10062;51.052;13.756;2022-07-29T08:21:03;25.10;1.00
19805;DHT22;10062;51.052;13.756;2022-07-29T08:23:36;25.40;1.00
19805;DHT22;10062;51.052;13.756;2022-07-29T08:26:10;25.70;1.00
19805;DHT22;10062;51.052;13.756;2022-07-29T08:28:44;25.90;1.00
19805;DHT22;10062;51.052;13.756;2022-07-29T08:31:17;26.00;1.00
19805;DHT22;10062;51.052;13.756;2022-07-29T08:33:49;26.00;1.00
19805;DHT22;10062;51.052;13.756;2022-07-29T08:36:20;26.30;1.00
19805;DHT22;10062;51.052;13.756;2022-07-29T08:38:53;26.50;1.00
19805;DHT22;10062;51.052;13.756;2022-07-29T08:41:26;26.70;1.00
19805;DHT22;10062;51.052;13.756;2022-07-29T08:43:57;27.30;1.00
19805;DHT22;10062;51.052;13.756;2022-07-29T08:46:29;27.70;1.00
19805;DHT22;10062;51.052;13.756;2022-07-29T08:49:02;28.10;1.00
19805;DHT22;10062;51.052;13.756;2022-07-29T08:51:34;28.80;1.00
19805;DHT22;10062;51.052;13.756;2022-07-29T08:54:09;29.40;1.00
19805;DHT22;10062;51.052;13.756;2022-07-29T08:56:41;29.50;1.00
19805;DHT22;10062;51.052;13.756;2022-07-29T08:59:14;29.60;1.00
19805;DHT22;10062;51.052;13.756;2022-07-29T09:01:46;29.50;1.00
19805;DHT22;10062;51.052;13.756;2022-07-29T09:04:20;30.00;1.00
19805;DHT22;10062;51.052;13.756;2022-07-29T09:06:54;30.50;1.00
19805;DHT22;10062;51.052;13.756;2022-07-29T09:09:28;30.50;1.00
19805;DHT22;10062;51.052;13.756;2022-07-29T09:12:01;30.50;99.90
19805;DHT22;10062;51.052;13.756;2022-07-29T09:14:34;30.60;99.90
19805;DHT22;10062;51.052;13.756;2022-07-29T09:17:06;30.50;99.90
19805;DHT22;10062;51.052;13.756;2022-07-29T09:19:38;30.20;99.90
19805;DHT22;10062;51.052;13.756;2022-07-29T09:22:10;30.20;99.90
19805;DHT22;10062;51.052;13.756;2022-07-29T09:24:45;30.00;99.90
19805;DHT22;10062;51.052;13.756;2022-07-29T09:27:22;30.00;99.90
19805;DHT22;10062;51.052;13.756;2022-07-29T09:29:57;30.10;99.90
19805;DHT22;10062;51.052;13.756;2022-07-29T09:32:29;30.20;99.90
19805;DHT22;10062;51.052;13.756;2022-07-29T09:35:14;30.30;99.90
19805;DHT22;10062;51.052;13.756;2022-07-29T09:37:47;30.40;99.90
19805;DHT22;10062;51.052;13.756;2022-07-29T09:40:23;30.30;99.90
19805;DHT22;10062;51.052;13.756;2022-07-29T09:42:55;30.40;99.90
19805;DHT22;10062;51.052;13.756;2022-07-29T09:45:29;30.40;99.90
19805;DHT22;10062;51.052;13.756;2022-07-29T09:48:13;30.50;99.90
19805;DHT22;10062;51.052;13.756;2022-07-29T09:50:46;30.50;99.90
19805;DHT22;10062;51.052;13.756;2022-07-29T09:53:33;30.60;99.90
19805;DHT22;10062;51.052;13.756;2022-07-29T09:56:06;31.00;99.90
19805;DHT22;10062;51.052;13.756;2022-07-29T09:58:38;31.10;99.90
19805;DHT22;10062;51.052;13.756;2022-07-29T10:01:10;30.90;99.90
19805;DHT22;10062;51.052;13.756;2022-07-29T10:03:50;30.80;99.90
19805;DHT22;10062;51.052;13.756;2022-07-29T10:06:22;30.70;99.90
19805;DHT22;10062;51.052;13.756;2022-07-29T10:08:54;30.80;99.90
19805;DHT22;10062;51.052;13.756;2022-07-29T10:11:27;31.20;99.90
19805;DHT22;10062;51.052;13.756;2022-07-29T10:14:01;31.80;99.90
19805;DHT22;10062;51.052;13.756;2022-07-29T10:16:33;32.50;99.90
19805;DHT22;10062;51.052;13.756;2022-07-29T10:19:05;33.70;99.90
19805;DHT22;10062;51.052;13.756;2022-07-29T10:21:37;35.20;99.90
19805;DHT22;10062;51.052;13.756;2022-07-29T10:24:13;37.90;99.90
19805;DHT22;10062;51.052;13.756;2022-07-29T10:26:46;40.50;99.90
19805;DHT22;10062;51.052;13.756;2022-07-29T10:29:18;41.40;99.90
19805;DHT22;10062;51.052;13.756;2022-07-29T10:31:57;40.30;99.90
19805;DHT22;10062;51.052;13.756;2022-07-29T10:34:49;38.60;99.90
19805;DHT22;10062;51.052;13.756;2022-07-29T10:37:29;36.80;99.90
19805;DHT22;10062;51.052;13.756;2022-07-29T10:40:14;35.10;99.90
19805;DHT22;10062;51.052;13.756;2022-07-29T10:43:16;34.00;99.90
19805;DHT22;10062;51.052;13.756;2022-07-29T10:45:50;32.90;99.90
19805;DHT22;10062;51.052;13.756;2022-07-29T10:48:26;31.70;99.90
19805;DHT22;10062;51.052;13.756;2022-07-29T10:51:00;31.00;99.90
19805;DHT22;10062;51.052;13.756;2022-07-29T10:53:46;31.00;99.90
19805;DHT22;10062;51.052;13.756;2022-07-29T10:56:26;31.00;99.90
19805;DHT22;10062;51.052;13.756;2022-07-29T10:59:24;31.90;99.90
19805;DHT22;10062;51.052;13.756;2022-07-29T11:01:56;32.50;99.90
19805;DHT22;10062;51.052;13.756;2022-07-29T11:05:00;33.20;99.90
19805;DHT22;10062;51.052;13.756;2022-07-29T11:07:34;33.90;99.90
19805;DHT22;10062;51.052;13.756;2022-07-29T11:10:23;33.90;99.90
19805;DHT22;10062;51.052;13.756;2022-07-29T11:12:54;34.90;99.90
19805;DHT22;10062;51.052;13.756;2022-07-29T11:15:27;36.40;99.90
19805;DHT22;10062;51.052;13.756;2022-07-29T11:18:08;36.10;99.90
19805;DHT22;10062;51.052;13.756;2022-07-29T11:20:41;37.30;99.90
19805;DHT22;10062;51.052;13.756;2022-07-29T11:23:22;39.40;99.90
19805;DHT22;10062;51.052;13.756;2022-07-29T11:26:15;40.50;99.90
19805;DHT22;10062;51.052;13.756;2022-07-29T11:28:51;38.90;99.90
19805;DHT22;10062;51.052;13.756;2022-07-29T11:31:36;38.60;99.90
19805;DHT22;10062;51.052;13.756;2022-07-29T11:34:19;37.90;99.90
19805;DHT22;10062;51.052;13.756;2022-07-29T11:37:16;37.30;99.90
19805;DHT22;10062;51.052;13.756;2022-07-29T11:40:08;36.70;99.90
19805;DHT22;10062;51.052;13.756;2022-07-29T11:42:42;36.20;99.90
19805;DHT22;10062;51.052;13.756;2022-07-29T11:45:22;35.50;99.90
19805;DHT22;10062;51.052;13.756;2022-07-29T11:47:59;35.50;99.90
19805;DHT22;10062;51.052;13.756;2022-07-29T11:50:36;34.60;99.90
19805;DHT22;10062;51.052;13.756;2022-07-29T11:53:11;34.80;99.90
19805;DHT22;10062;51.052;13.756;2022-07-29T11:55:43;34.30;99.90
19805;DHT22;10062;51.052;13.756;2022-07-29T11:58:21;34.60;99.90
19805;DHT22;10062;51.052;13.756;2022-07-29T12:00:53;34.40;99.90
19805;DHT22;10062;51.052;13.756;2022-07-29T12:03:27;34.40;99.90
19805;DHT22;10062;51.052;13.756;2022-07-29T12:05:59;33.70;99.90
19805;DHT22;10062;51.052;13.756;2022-07-29T12:08:40;33.00;99.90
19805;DHT22;10062;51.052;13.756;2022-07-29T12:11:16;32.80;99.90
19805;DHT22;10062;51.052;13.756;2022-07-29T12:13:48;33.00;99.90
19805;DHT22;10062;51.052;13.756;2022-07-29T12:16:21;33.20;99.90
19805;DHT22;10062;51.052;13.756;2022-07-29T12:18:58;33.30;99.90
19805;DHT22;10062;51.052;13.756;2022-07-29T12:21:44;33.40;99.90
19805;DHT22;10062;51.052;13.756;2022-07-29T12:24:16;33.70;99.90
19805;DHT22;10062;51.052;13.756;2022-07-29T12:26:51;34.20;99.90
19805;DHT22;10062;51.052;13.756;2022-07-29T12:29:23;34.10;99.90
19805;DHT22;10062;51.052;13.756;2022-07-29T12:31:57;34.00;99.90
19805;DHT22;10062;51.052;13.756;2022-07-29T12:34:30;33.60;99.90
19805;DHT22;10062;51.052;13.756;2022-07-29T12:37:03;32.60;99.90
19805;DHT22;10062;51.052;13.756;2022-07-29T12:39:35;32.70;99.90
19805;DHT22;10062;51.052;13.756;2022-07-29T12:42:11;32.20;99.90
19805;DHT22;10062;51.052;13.756;2022-07-29T12:44:44;32.00;99.90
19805;DHT22;10062;51.052;13.756;2022-07-29T12:47:17;32.30;99.90
19805;DHT22;10062;51.052;13.756;2022-07-29T12:49:51;32.50;99.90
19805;DHT22;10062;51.052;13.756;2022-07-29T12:52:38;32.70;99.90
19805;DHT22;10062;51.052;13.756;2022-07-29T12:55:10;32.70;99.90
19805;DHT22;10062;51.052;13.756;2022-07-29T12:57:46;32.60;99.90
19805;DHT22;10062;51.052;13.756;2022-07-29T13:00:22;32.60;99.90
19805;DHT22;10062;51.052;13.756;2022-07-29T13:02:55;32.50;99.90
19805;DHT22;10062;51.052;13.756;2022-07-29T13:05:40;32.40;99.90
19805;DHT22;10062;51.052;13.756;2022-07-29T13:08:13;31.80;99.90
19805;DHT22;10062;51.052;13.756;2022-07-29T13:10:47;31.90;99.90
19805;DHT22;10062;51.052;13.756;2022-07-29T13:13:18;31.80;99.90
19805;DHT22;10062;51.052;13.756;2022-07-29T13:16:05;31.50;99.90
19805;DHT22;10062;51.052;13.756;2022-07-29T13:18:37;31.70;99.90
19805;DHT22;10062;51.052;13.756;2022-07-29T13:21:15;31.40;99.90
19805;DHT22;10062;51.052;13.756;2022-07-29T13:23:47;31.50;99.90
19805;DHT22;10062;51.052;13.756;2022-07-29T13:26:18;31.80;99.90
19805;DHT22;10062;51.052;13.756;2022-07-29T13:28:50;31.90;99.90
19805;DHT22;10062;51.052;13.756;2022-07-29T13:31:21;31.60;99.90
19805;DHT22;10062;51.052;13.756;2022-07-29T13:33:53;31.50;99.90
19805;DHT22;10062;51.052;13.756;2022-07-29T13:36:28;31.70;99.90
19805;DHT22;10062;51.052;13.756;2022-07-29T13:38:59;32.00;99.90
19805;DHT22;10062;51.052;13.756;2022-07-29T13:41:32;32.10;99.90
19805;DHT22;10062;51.052;13.756;2022-07-29T13:44:04;32.20;99.90
19805;DHT22;10062;51.052;13.756;2022-07-29T13:46:36;32.30;99.90
19805;DHT22;10062;51.052;13.756;2022-07-29T13:49:07;32.40;99.90
19805;DHT22;10062;51.052;13.756;2022-07-29T13:51:41;32.60;99.90
19805;DHT22;10062;51.052;13.756;2022-07-29T13:54:13;32.70;99.90
19805;DHT22;10062;51.052;13.756;2022-07-29T13:56:44;32.70;99.90
19805;DHT22;10062;51.052;13.756;2022-07-29T13:59:16;32.60;99.90
19805;DHT22;10062;51.052;13.756;2022-07-29T14:01:48;32.10;99.90
19805;DHT22;10062;51.052;13.756;2022-07-29T14:04:19;32.10;99.90
19805;DHT22;10062;51.052;13.756;2022-07-29T14:06:53;31.90;99.90
19805;DHT22;10062;51.052;13.756;2022-07-29T14:09:25;32.20;99.90
19805;DHT22;10062;51.052;13.756;2022-07-29T14:11:56;32.20;99.90
19805;DHT22;10062;51.052;13.756;2022-07-29T14:14:28;32.50;99.90
19805;DHT22;10062;51.052;13.756;2022-07-29T14:17:02;32.70;99.90
19805;DHT22;10062;51.052;13.756;2022-07-29T14:19:36;32.60;99.90
19805;DHT22;10062;51.052;13.756;2022-07-29T14:22:09;32.40;99.90
19805;DHT22;10062;51.052;13.756;2022-07-29T14:24:41;32.40;99.90
19805;DHT22;10062;51.052;13.756;2022-07-29T14:27:13;32.40;99.90
19805;DHT22;10062;51.052;13.756;2022-07-29T14:29:44;32.40;99.90
19805;DHT22;10062;51.052;13.756;2022-07-29T14:32:16;32.20;99.90
19805;DHT22;10062;51.052;13.756;2022-07-29T14:34:48;32.20;99.90
19805;DHT22;10062;51.052;13.756;2022-07-29T14:37:21;31.90;99.90
19805;DHT22;10062;51.052;13.756;2022-07-29T14:39:53;31.50;99.90
19805;DHT22;10062;51.052;13.756;2022-07-29T14:42:30;31.50;99.90
19805;DHT22;10062;51.052;13.756;2022-07-29T14:45:02;31.80;99.90
19805;DHT22;10062;51.052;13.756;2022-07-29T14:47:34;32.30;99.90
19805;DHT22;10062;51.052;13.756;2022-07-29T14:50:07;32.80;99.90
19805;DHT22;10062;51.052;13.756;2022-07-29T14:52:40;33.20;99.90
19805;DHT22;10062;51.052;13.756;2022-07-29T14:55:12;33.50;99.90
19805;DHT22;10062;51.052;13.756;2022-07-29T14:57:43;33.90;99.90
19805;DHT22;10062;51.052;13.756;2022-07-29T15:00:16;34.00;99.90
19805;DHT22;10062;51.052;13.756;2022-07-29T15:02:48;34.30;99.90
19805;DHT22;10062;51.052;13.756;2022-07-29T15:05:20;34.40;99.90
19805;DHT22;10062;51.052;13.756;2022-07-29T15:07:53;34.30;99.90
19805;DHT22;10062;51.052;13.756;2022-07-29T15:10:25;34.00;99.90
19805;DHT22;10062;51.052;13.756;2022-07-29T15:12:57;34.10;99.90
19805;DHT22;10062;51.052;13.756;2022-07-29T15:15:29;34.10;99.90
19805;DHT22;10062;51.052;13.756;2022-07-29T15:18:00;33.70;99.90
19805;DHT22;10062;51.052;13.756;2022-07-29T15:20:32;33.40;99.90
19805;DHT22;10062;51.052;13.756;2022-07-29T15:23:05;33.30;99.90
19805;DHT22;10062;51.052;13.756;2022-07-29T15:25:39;33.10;99.90
19805;DHT22;10062;51.052;13.756;2022-07-29T15:28:11;32.60;99.90
19805;DHT22;10062;51.052;13.756;2022-07-29T15:30:43;32.50;99.90
19805;DHT22;10062;51.052;13.756;2022-07-29T15:33:14;32.50;99.90
19805;DHT22;10062;51.052;13.756;2022-07-29T15:35:46;32.50;99.90
19805;DHT22;10062;51.052;13.756;2022-07-29T15:38:19;32.40;99.90
19805;DHT22;10062;51.052;13.756;2022-07-29T15:40:51;32.10;99.90
19805;DHT22;10062;51.052;13.756;2022-07-29T15:43:23;31.90;99.90
19805;DHT22;10062;51.052;13.756;2022-07-29T15:45:54;31.90;99.90
19805;DHT22;10062;51.052;13.756;2022-07-29T15:48:43;31.90;99.90
19805;DHT22;10062;51.052;13.756;2022-07-29T15:51:15;31.80;99.90
19805;DHT22;10062;51.052;13.756;2022-07-29T15:53:48;31.80;99.90
19805;DHT22;10062;51.052;13.756;2022-07-29T15:56:20;31.70;99.90
19805;DHT22;10062;51.052;13.756;2022-07-29T15:58:52;31.60;99.90
19805;DHT22;10062;51.052;13.756;2022-07-29T16:01:23;31.50;99.90
19805;DHT22;10062;51.052;13.756;2022-07-29T16:03:57;31.00;99.90
19805;DHT22;10062;51.052;13.756;2022-07-29T16:06:29;31.00;99.90